createdAt,value
2017-08-31T00:00:08.507Z,99.99
2017-08-31T00:01:08.295Z,99.99
2017-08-31T00:02:07.987Z,99.99
2017-08-31T00:03:08.298Z,99.45
2017-08-31T00:04:08.304Z,99.99
2017-08-31T00:05:08.526Z,99.99
2017-08-31T00:06:08.336Z,99.99
2017-08-31T00:07:08.312Z,99.99
2017-08-31T00:08:08.007Z,99.55
2017-08-31T00:09:08.318Z,99.99
2017-08-31T00:10:08.211Z,99.99
2017-08-31T00:11:08.331Z,99.99
2017-08-31T00:12:08.029Z,99.99
2017-08-31T00:13:08.024Z,99.65
2017-08-31T00:14:08.028Z,99.99
2017-08-31T00:15:08.516Z,99.35
2017-08-31T00:16:08.343Z,99.35
2017-08-31T00:17:08.349Z,99.99
2017-08-31T00:18:08.376Z,99.99
2017-08-31T00:19:08.352Z,99.93
2017-08-31T00:20:08.181Z,99.93
2017-08-31T00:21:08.360Z,99.35
2017-08-31T00:22:08.363Z,99.99
2017-08-31T00:23:08.367Z,99.16
2017-08-31T00:24:08.369Z,98.78
2017-08-31T00:25:08.684Z,99.55
2017-08-31T00:26:08.383Z,99.99
2017-08-31T00:27:08.387Z,99.93
2017-08-31T00:28:08.384Z,99.55
2017-08-31T00:29:08.386Z,99.84
2017-08-31T00:30:08.620Z,99.84
2017-08-31T00:31:08.098Z,99.99
2017-08-31T00:32:08.092Z,99.99
2017-08-31T00:33:08.404Z,99.99
2017-08-31T00:34:08.418Z,99.99
2017-08-31T00:35:08.620Z,99.99
2017-08-31T00:36:08.434Z,99.99
2017-08-31T00:37:08.112Z,99.99
2017-08-31T00:38:08.435Z,99.99
2017-08-31T00:39:08.426Z,99.99
2017-08-31T00:40:08.775Z,99.99
2017-08-31T00:41:08.126Z,99.99
2017-08-31T00:42:08.123Z,99.99
2017-08-31T00:43:08.440Z,99.99
2017-08-31T00:44:08.130Z,99.99
2017-08-31T00:45:08.159Z,99.99
2017-08-31T00:46:08.452Z,99.99
2017-08-31T00:47:08.454Z,99.99
2017-08-31T00:48:08.144Z,99.99
2017-08-31T00:49:08.464Z,99.99
2017-08-31T00:50:08.744Z,99.88
2017-08-31T00:51:08.163Z,99.99
2017-08-31T00:52:08.196Z,99.99
2017-08-31T00:53:08.472Z,99.88
2017-08-31T00:54:08.167Z,99.99
2017-08-31T00:55:08.304Z,99.99
2017-08-31T00:56:08.488Z,99.99
2017-08-31T00:57:08.175Z,99.99
2017-08-31T00:58:08.491Z,99.99
2017-08-31T00:59:08.491Z,99.99
2017-08-31T01:00:09.707Z,99.99
2017-08-31T01:01:08.529Z,99.99
2017-08-31T01:02:08.505Z,99.99
2017-08-31T01:03:08.195Z,99.99
2017-08-31T01:04:08.507Z,99.99
2017-08-31T01:05:08.874Z,99.99
2017-08-31T01:06:08.206Z,99.99
2017-08-31T01:07:08.519Z,99.99
2017-08-31T01:08:08.522Z,99.99
2017-08-31T01:09:08.527Z,99.99
2017-08-31T01:10:08.904Z,99.99
2017-08-31T01:11:08.225Z,99.99
2017-08-31T01:12:08.533Z,99.99
2017-08-31T01:13:08.229Z,99.99
2017-08-31T01:14:08.564Z,99.99
2017-08-31T01:15:14.905Z,99.99
2017-08-31T01:16:08.257Z,99.99
2017-08-31T01:17:08.554Z,99.99
2017-08-31T01:18:08.248Z,99.99
2017-08-31T01:19:08.558Z,99.99
2017-08-31T01:20:08.732Z,99.99
2017-08-31T01:21:08.565Z,99.99
2017-08-31T01:22:08.261Z,99.99
2017-08-31T01:23:08.586Z,99.99
2017-08-31T01:24:08.576Z,99.99
2017-08-31T01:25:08.518Z,99.99
2017-08-31T01:26:08.588Z,99.99
2017-08-31T01:27:08.280Z,99.99
2017-08-31T01:28:08.284Z,99.99
2017-08-31T01:29:08.604Z,99.99
2017-08-31T01:30:08.460Z,99.99
2017-08-31T01:31:08.295Z,99.99
2017-08-31T01:32:08.293Z,99.99
2017-08-31T01:33:08.607Z,99.99
2017-08-31T01:34:08.304Z,99.99
2017-08-31T01:35:08.932Z,99.99
2017-08-31T01:36:08.331Z,99.99
2017-08-31T01:37:08.618Z,99.99
2017-08-31T01:38:08.317Z,99.99
2017-08-31T01:39:08.627Z,99.99
2017-08-31T01:40:08.922Z,99.99
2017-08-31T01:41:08.326Z,99.99
2017-08-31T01:42:08.639Z,99.99
2017-08-31T01:43:08.639Z,99.99
2017-08-31T01:44:08.646Z,99.99
2017-08-31T01:45:08.999Z,99.99
2017-08-31T01:46:08.664Z,99.99
2017-08-31T01:47:08.661Z,99.99
2017-08-31T01:48:08.362Z,99.99
2017-08-31T01:49:08.663Z,99.99
2017-08-31T01:50:08.969Z,99.99
2017-08-31T01:51:08.673Z,99.99
2017-08-31T01:52:08.677Z,99.99
2017-08-31T01:53:08.682Z,99.99
2017-08-31T01:54:08.681Z,99.99
2017-08-31T01:55:09.023Z,99.99
2017-08-31T01:56:08.704Z,99.99
2017-08-31T01:57:08.691Z,99.99
2017-08-31T01:58:08.384Z,99.99
2017-08-31T01:59:08.695Z,99.99
2017-08-31T02:00:08.974Z,99.99
2017-08-31T02:01:13.420Z,99.99
2017-08-31T02:02:08.710Z,99.99
2017-08-31T02:03:08.709Z,99.99
2017-08-31T02:04:08.716Z,99.99
2017-08-31T02:05:09.060Z,99.99
2017-08-31T02:06:08.727Z,99.99
2017-08-31T02:07:08.724Z,99.99
2017-08-31T02:08:08.726Z,99.99
2017-08-31T02:09:08.733Z,99.99
2017-08-31T02:10:09.000Z,99.99
2017-08-31T02:11:08.739Z,99.99
2017-08-31T02:12:08.741Z,99.99
2017-08-31T02:13:08.750Z,99.99
2017-08-31T02:14:08.757Z,99.99
2017-08-31T02:15:08.686Z,99.99
2017-08-31T02:16:08.446Z,99.99
2017-08-31T02:17:08.765Z,99.99
2017-08-31T02:18:08.761Z,99.99
2017-08-31T02:19:08.765Z,99.99
2017-08-31T02:20:08.770Z,99.99
2017-08-31T02:21:08.776Z,99.99
2017-08-31T02:22:08.777Z,99.99
2017-08-31T02:23:08.786Z,99.99
2017-08-31T02:24:08.781Z,99.99
2017-08-31T02:25:09.060Z,99.99
2017-08-31T02:26:08.483Z,99.99
2017-08-31T02:27:08.485Z,99.99
2017-08-31T02:28:08.797Z,99.99
2017-08-31T02:29:08.799Z,99.99
2017-08-31T02:30:09.112Z,99.99
2017-08-31T02:31:08.807Z,99.99
2017-08-31T02:32:08.809Z,99.99
2017-08-31T02:33:08.504Z,99.99
2017-08-31T02:34:08.818Z,99.99
2017-08-31T02:35:08.812Z,99.99
2017-08-31T02:36:08.516Z,99.99
2017-08-31T02:37:08.518Z,99.99
2017-08-31T02:38:08.849Z,99.99
2017-08-31T02:39:08.527Z,99.99
2017-08-31T02:40:08.766Z,99.99
2017-08-31T02:41:08.535Z,99.99
2017-08-31T02:42:08.846Z,99.99
2017-08-31T02:43:08.846Z,99.99
2017-08-31T02:44:08.850Z,99.99
2017-08-31T02:45:09.187Z,99.99
2017-08-31T02:46:08.874Z,99.99
2017-08-31T02:47:08.859Z,99.99
2017-08-31T02:48:08.861Z,99.99
2017-08-31T02:49:08.869Z,99.99
2017-08-31T02:50:09.222Z,99.99
2017-08-31T02:51:08.877Z,99.99
2017-08-31T02:52:08.566Z,99.99
2017-08-31T02:53:08.879Z,99.99
2017-08-31T02:54:08.887Z,99.99
2017-08-31T02:55:09.258Z,99.99
2017-08-31T02:56:08.895Z,99.79
2017-08-31T02:57:08.893Z,99.4
2017-08-31T02:58:08.586Z,99.99
2017-08-31T02:59:08.903Z,99.88
2017-08-31T03:00:09.304Z,99.99
2017-08-31T03:01:08.908Z,99.99
2017-08-31T03:02:10.817Z,99.99
2017-08-31T03:03:08.911Z,99.99
2017-08-31T03:04:08.918Z,99.99
2017-08-31T03:05:09.269Z,99.99
2017-08-31T03:06:08.923Z,99.99
2017-08-31T03:07:08.922Z,99.99
2017-08-31T03:08:08.927Z,99.99
2017-08-31T03:09:08.930Z,99.99
2017-08-31T03:10:09.303Z,99.99
2017-08-31T03:11:08.937Z,99.99
2017-08-31T03:12:08.942Z,99.99
2017-08-31T03:13:08.944Z,99.99
2017-08-31T03:14:08.946Z,99.99
2017-08-31T03:15:09.327Z,99.99
2017-08-31T03:16:08.971Z,99.99
2017-08-31T03:17:08.849Z,99.99
2017-08-31T03:18:08.965Z,99.99
2017-08-31T03:19:08.968Z,99.99
2017-08-31T03:20:08.964Z,99.99
2017-08-31T03:21:09.003Z,99.99
2017-08-31T03:22:08.990Z,99.99
2017-08-31T03:23:08.975Z,99.99
2017-08-31T03:24:08.987Z,99.99
2017-08-31T03:25:09.363Z,99.99
2017-08-31T03:26:08.988Z,99.99
2017-08-31T03:27:08.997Z,99.99
2017-08-31T03:28:08.696Z,99.99
2017-08-31T03:29:08.693Z,99.99
2017-08-31T03:30:09.046Z,99.99
2017-08-31T03:31:09.005Z,99.99
2017-08-31T03:32:09.207Z,99.99
2017-08-31T03:33:09.009Z,99.99
2017-08-31T03:34:09.018Z,99.99
2017-08-31T03:35:09.370Z,99.99
2017-08-31T03:36:09.019Z,99.99
2017-08-31T03:37:09.022Z,99.99
2017-08-31T03:38:09.037Z,99.99
2017-08-31T03:39:08.719Z,99.99
2017-08-31T03:40:09.374Z,99.99
2017-08-31T03:41:08.729Z,99.99
2017-08-31T03:42:08.729Z,99.99
2017-08-31T03:43:09.045Z,99.99
2017-08-31T03:44:09.044Z,99.99
2017-08-31T03:45:09.451Z,99.99
2017-08-31T03:46:09.061Z,99.99
2017-08-31T03:47:09.062Z,99.99
2017-08-31T03:48:09.060Z,99.99
2017-08-31T03:49:09.065Z,99.99
2017-08-31T03:50:09.447Z,99.99
2017-08-31T03:51:09.084Z,99.99
2017-08-31T03:52:09.083Z,99.99
2017-08-31T03:53:09.072Z,99.99
2017-08-31T03:54:08.769Z,99.99
2017-08-31T03:55:09.436Z,99.99
2017-08-31T03:56:09.101Z,99.99
2017-08-31T03:57:09.085Z,99.99
2017-08-31T03:58:08.779Z,99.99
2017-08-31T03:59:08.781Z,99.99
2017-08-31T04:00:09.472Z,99.99
2017-08-31T04:01:09.096Z,99.99
2017-08-31T04:02:09.090Z,99.99
2017-08-31T04:03:09.112Z,99.99
2017-08-31T04:04:08.796Z,99.99
2017-08-31T04:05:09.153Z,99.99
2017-08-31T04:06:09.114Z,99.99
2017-08-31T04:07:08.806Z,99.99
2017-08-31T04:08:09.117Z,99.99
2017-08-31T04:09:09.119Z,99.99
2017-08-31T04:10:09.526Z,99.99
2017-08-31T04:11:09.136Z,99.99
2017-08-31T04:12:08.824Z,99.99
2017-08-31T04:13:08.827Z,99.99
2017-08-31T04:14:09.136Z,99.99
2017-08-31T04:15:09.536Z,99.99
2017-08-31T04:16:09.143Z,99.99
2017-08-31T04:17:09.142Z,99.99
2017-08-31T04:18:09.148Z,99.99
2017-08-31T04:19:09.150Z,99.99
2017-08-31T04:20:09.171Z,99.99
2017-08-31T04:21:09.163Z,99.99
2017-08-31T04:22:08.856Z,99.99
2017-08-31T04:23:09.161Z,99.99
2017-08-31T04:24:08.856Z,99.99
2017-08-31T04:25:09.544Z,99.99
2017-08-31T04:26:09.207Z,99.99
2017-08-31T04:27:08.871Z,99.99
2017-08-31T04:28:09.180Z,99.99
2017-08-31T04:29:09.180Z,99.99
2017-08-31T04:30:09.554Z,99.99
2017-08-31T04:31:08.879Z,99.99
2017-08-31T04:32:10.511Z,99.99
2017-08-31T04:33:09.193Z,99.99
2017-08-31T04:34:09.195Z,99.99
2017-08-31T04:35:09.618Z,99.99
2017-08-31T04:36:09.209Z,99.99
2017-08-31T04:37:09.208Z,99.99
2017-08-31T04:38:08.901Z,99.99
2017-08-31T04:39:09.212Z,99.99
2017-08-31T04:40:09.610Z,99.99
2017-08-31T04:41:09.220Z,99.99
2017-08-31T04:42:09.220Z,99.99
2017-08-31T04:43:08.914Z,99.99
2017-08-31T04:44:08.919Z,99.99
2017-08-31T04:45:09.333Z,99.99
2017-08-31T04:46:08.928Z,99.99
2017-08-31T04:47:08.932Z,99.99
2017-08-31T04:48:08.932Z,99.99
2017-08-31T04:49:09.242Z,99.99
2017-08-31T04:50:09.595Z,99.99
2017-08-31T04:51:09.260Z,99.99
2017-08-31T04:52:09.260Z,99.99
2017-08-31T04:53:08.953Z,99.99
2017-08-31T04:54:09.261Z,99.99
2017-08-31T04:55:09.641Z,99.99
2017-08-31T04:56:08.959Z,99.99
2017-08-31T04:57:09.272Z,99.99
2017-08-31T04:58:09.275Z,99.99
2017-08-31T04:59:09.276Z,99.99
2017-08-31T05:00:09.694Z,99.99
2017-08-31T05:01:08.975Z,99.99
2017-08-31T05:02:09.283Z,99.99
2017-08-31T05:03:09.288Z,99.99
2017-08-31T05:04:09.292Z,99.99
2017-08-31T05:05:09.339Z,99.99
2017-08-31T05:06:09.005Z,99.99
2017-08-31T05:07:08.998Z,99.99
2017-08-31T05:08:09.303Z,99.99
2017-08-31T05:09:09.315Z,99.99
2017-08-31T05:10:09.705Z,99.99
2017-08-31T05:11:09.314Z,99.99
2017-08-31T05:12:09.325Z,99.99
2017-08-31T05:13:09.330Z,99.99
2017-08-31T05:14:09.341Z,99.99
2017-08-31T05:15:09.766Z,99.99
2017-08-31T05:16:09.346Z,99.99
2017-08-31T05:17:09.032Z,99.99
2017-08-31T05:18:09.341Z,99.99
2017-08-31T05:19:09.031Z,99.99
2017-08-31T05:20:09.438Z,99.99
2017-08-31T05:21:09.368Z,99.99
2017-08-31T05:22:09.353Z,99.99
2017-08-31T05:23:09.366Z,98.82
2017-08-31T05:24:09.365Z,99.79
2017-08-31T05:25:09.445Z,99.4
2017-08-31T05:26:09.372Z,99.99
2017-08-31T05:27:09.368Z,99.88
2017-08-31T05:28:09.385Z,99.98
2017-08-31T05:29:09.067Z,99.99
2017-08-31T05:30:09.821Z,99.79
2017-08-31T05:31:09.385Z,99.5
2017-08-31T05:32:09.083Z,99.88
2017-08-31T05:33:09.392Z,99.99
2017-08-31T05:34:09.402Z,99.88
2017-08-31T05:35:09.834Z,99.79
2017-08-31T05:36:09.417Z,99.88
2017-08-31T05:37:09.401Z,99.88
2017-08-31T05:38:09.111Z,99.99
2017-08-31T05:39:09.424Z,99.99
2017-08-31T05:40:09.868Z,99.99
2017-08-31T05:41:09.430Z,98.63
2017-08-31T05:42:09.122Z,99.21
2017-08-31T05:43:09.434Z,99.21
2017-08-31T05:44:09.436Z,99.99
2017-08-31T05:45:09.910Z,99.88
2017-08-31T05:46:09.132Z,99.99
2017-08-31T05:47:09.441Z,99.88
2017-08-31T05:48:09.136Z,99.99
2017-08-31T05:49:09.444Z,99.99
2017-08-31T05:50:09.839Z,99.99
2017-08-31T05:51:09.450Z,99.99
2017-08-31T05:52:09.455Z,99.99
2017-08-31T05:53:09.153Z,99.99
2017-08-31T05:54:09.470Z,99.99
2017-08-31T05:55:09.898Z,99.07
2017-08-31T05:56:09.160Z,98.54
2017-08-31T05:57:09.473Z,95.26
2017-08-31T05:58:09.482Z,97.38
2017-08-31T05:59:09.478Z,99.99
2017-08-31T06:00:09.570Z,99.99
2017-08-31T06:01:09.498Z,99.99
2017-08-31T06:02:09.500Z,99.99
2017-08-31T06:03:09.498Z,99.99
2017-08-31T06:04:09.186Z,99.99
2017-08-31T06:05:09.618Z,99.99
2017-08-31T06:06:09.565Z,99.99
2017-08-31T06:07:09.508Z,99.99
2017-08-31T06:08:09.504Z,99.99
2017-08-31T06:09:09.521Z,99.99
2017-08-31T06:10:09.602Z,99.99
2017-08-31T06:11:09.216Z,99.99
2017-08-31T06:12:09.211Z,99.99
2017-08-31T06:13:09.215Z,99.99
2017-08-31T06:14:09.214Z,99.99
2017-08-31T06:15:09.929Z,99.99
2017-08-31T06:16:09.566Z,99.99
2017-08-31T06:17:09.221Z,99.99
2017-08-31T06:18:09.223Z,99.99
2017-08-31T06:19:09.537Z,99.99
2017-08-31T06:20:09.984Z,99.99
2017-08-31T06:21:09.541Z,99.99
2017-08-31T06:22:09.543Z,99.99
2017-08-31T06:23:09.547Z,99.99
2017-08-31T06:24:09.548Z,99.99
2017-08-31T06:25:09.928Z,99.99
2017-08-31T06:26:09.602Z,99.99
2017-08-31T06:27:09.557Z,99.99
2017-08-31T06:28:09.571Z,99.99
2017-08-31T06:29:09.572Z,99.99
2017-08-31T06:30:09.678Z,99.99
2017-08-31T06:31:09.601Z,99.99
2017-08-31T06:32:09.573Z,99.99
2017-08-31T06:33:09.572Z,99.99
2017-08-31T06:34:09.578Z,99.99
2017-08-31T06:35:09.694Z,99.99
2017-08-31T06:36:09.585Z,99.99
2017-08-31T06:37:09.276Z,99.99
2017-08-31T06:38:09.601Z,99.99
2017-08-31T06:39:09.284Z,99.99
2017-08-31T06:40:09.641Z,99.99
2017-08-31T06:41:09.296Z,99.99
2017-08-31T06:42:09.608Z,99.99
2017-08-31T06:43:09.292Z,99.99
2017-08-31T06:44:09.605Z,99.99
2017-08-31T06:45:10.053Z,99.99
2017-08-31T06:46:09.617Z,99.99
2017-08-31T06:47:09.307Z,99.99
2017-08-31T06:48:14.826Z,99.99
2017-08-31T06:49:09.624Z,99.99
2017-08-31T06:50:10.055Z,99.99
2017-08-31T06:51:09.632Z,99.99
2017-08-31T06:52:09.636Z,99.99
2017-08-31T06:53:09.326Z,99.99
2017-08-31T06:54:09.639Z,99.99
2017-08-31T06:55:10.106Z,99.99
2017-08-31T06:56:09.653Z,99.99
2017-08-31T06:57:09.352Z,99.99
2017-08-31T06:58:09.664Z,99.99
2017-08-31T06:59:09.660Z,99.99
2017-08-31T07:00:10.112Z,99.99
2017-08-31T07:01:09.364Z,97.57
2017-08-31T07:02:09.671Z,95.73
2017-08-31T07:03:09.366Z,94.77
2017-08-31T07:04:09.685Z,94.96
2017-08-31T07:05:10.129Z,94.29
2017-08-31T07:06:09.399Z,94.33
2017-08-31T07:07:09.387Z,94.24
2017-08-31T07:08:09.706Z,92.49
2017-08-31T07:09:09.397Z,92.93
2017-08-31T07:10:09.788Z,93.8
2017-08-31T07:11:09.713Z,96.36
2017-08-31T07:12:09.715Z,96.36
2017-08-31T07:13:09.719Z,97.28
2017-08-31T07:14:09.424Z,98
2017-08-31T07:15:10.158Z,98.73
2017-08-31T07:16:09.424Z,98.15
2017-08-31T07:17:09.743Z,98.83
2017-08-31T07:18:09.755Z,98.63
2017-08-31T07:19:09.754Z,98.83
2017-08-31T07:20:10.295Z,98.58
2017-08-31T07:21:09.447Z,99.11
2017-08-31T07:22:09.758Z,99.99
2017-08-31T07:23:09.765Z,99.99
2017-08-31T07:24:09.464Z,99.55
2017-08-31T07:25:10.236Z,98.87
2017-08-31T07:26:09.780Z,98.2
2017-08-31T07:27:09.774Z,98.97
2017-08-31T07:28:09.779Z,98.87
2017-08-31T07:29:09.784Z,99.26
2017-08-31T07:30:10.286Z,99.65
2017-08-31T07:31:09.795Z,99.45
2017-08-31T07:32:09.486Z,99.45
2017-08-31T07:33:09.796Z,98.49
2017-08-31T07:34:09.801Z,97.91
2017-08-31T07:35:10.230Z,96.84
2017-08-31T07:36:09.898Z,97.91
2017-08-31T07:37:09.509Z,98.1
2017-08-31T07:38:09.825Z,96.94
2017-08-31T07:39:09.826Z,97.09
2017-08-31T07:40:10.263Z,97.57
2017-08-31T07:41:09.567Z,97.81
2017-08-31T07:42:09.837Z,97.86
2017-08-31T07:43:09.840Z,97.77
2017-08-31T07:44:09.846Z,99.4
2017-08-31T07:45:10.324Z,99.02
2017-08-31T07:46:09.543Z,99.88
2017-08-31T07:47:09.852Z,99.99
2017-08-31T07:48:09.859Z,99.99
2017-08-31T07:49:12.566Z,99.99
2017-08-31T07:50:09.983Z,99.99
2017-08-31T07:51:09.926Z,99.99
2017-08-31T07:52:09.873Z,98
2017-08-31T07:53:09.875Z,98.54
2017-08-31T07:54:09.882Z,98.78
2017-08-31T07:55:10.074Z,97.24
2017-08-31T07:56:09.898Z,96.17
2017-08-31T07:57:09.895Z,95.78
2017-08-31T07:58:09.593Z,93.51
2017-08-31T07:59:09.901Z,94.09
2017-08-31T08:00:10.443Z,94.92
2017-08-31T08:01:09.674Z,96.41
2017-08-31T08:02:09.607Z,93.9
2017-08-31T08:03:09.918Z,91.33
2017-08-31T08:04:09.975Z,88.96
2017-08-31T08:05:10.387Z,87.23
2017-08-31T08:06:09.958Z,87.07
2017-08-31T08:07:09.944Z,85.72
2017-08-31T08:08:09.948Z,86.01
2017-08-31T08:09:09.945Z,86.78
2017-08-31T08:10:10.403Z,85.47
2017-08-31T08:11:09.967Z,85.76
2017-08-31T08:12:09.968Z,85.18
2017-08-31T08:13:09.968Z,85.57
2017-08-31T08:14:09.974Z,87.12
2017-08-31T08:15:10.781Z,86.44
2017-08-31T08:16:10.011Z,86.73
2017-08-31T08:17:09.990Z,86.59
2017-08-31T08:18:09.988Z,85.91
2017-08-31T08:19:12.441Z,86.78
2017-08-31T08:20:10.440Z,88.23
2017-08-31T08:21:10.017Z,88.29
2017-08-31T08:22:09.699Z,88.29
2017-08-31T08:23:09.705Z,87.32
2017-08-31T08:24:09.727Z,88.73
2017-08-31T08:25:10.710Z,89.11
2017-08-31T08:26:09.731Z,88.92
2017-08-31T08:27:10.042Z,90.08
2017-08-31T08:28:10.042Z,91.19
2017-08-31T08:29:10.050Z,91.43
2017-08-31T08:30:10.680Z,92.4
2017-08-31T08:31:09.746Z,92.65
2017-08-31T08:32:10.056Z,92.45
2017-08-31T08:33:10.061Z,91.19
2017-08-31T08:34:10.066Z,92.83
2017-08-31T08:35:10.207Z,91.77
2017-08-31T08:36:10.133Z,94.57
2017-08-31T08:37:10.082Z,94.96
2017-08-31T08:38:10.086Z,95.93
2017-08-31T08:39:10.092Z,96.08
2017-08-31T08:40:09.805Z,95.3
2017-08-31T08:41:09.884Z,94.29
2017-08-31T08:42:10.112Z,94.43
2017-08-31T08:43:10.114Z,93.71
2017-08-31T08:44:10.111Z,91.49
2017-08-31T08:45:10.663Z,90.33
2017-08-31T08:46:10.191Z,90.23
2017-08-31T08:47:09.822Z,89.65
2017-08-31T08:48:10.127Z,91.59
2017-08-31T08:49:09.825Z,91.59
2017-08-31T08:50:10.781Z,91.3
2017-08-31T08:51:09.908Z,92.16
2017-08-31T08:52:10.143Z,92.55
2017-08-31T08:53:10.148Z,94.72
2017-08-31T08:54:09.844Z,93.85
2017-08-31T08:55:10.735Z,91.63
2017-08-31T08:56:10.185Z,91.05
2017-08-31T08:57:10.173Z,91.53
2017-08-31T08:58:10.168Z,92.69
2017-08-31T08:59:10.175Z,93.47
2017-08-31T09:00:10.870Z,91.92
2017-08-31T09:01:10.204Z,91.35
2017-08-31T09:02:10.188Z,89.22
2017-08-31T09:03:10.189Z,87.29
2017-08-31T09:04:09.887Z,86.22
2017-08-31T09:05:14.804Z,84.88
2017-08-31T09:06:10.253Z,85.94
2017-08-31T09:07:10.208Z,86.18
2017-08-31T09:08:09.902Z,86.38
2017-08-31T09:09:09.904Z,86.18
2017-08-31T09:10:12.271Z,87.24
2017-08-31T09:11:10.246Z,86.57
2017-08-31T09:12:09.917Z,87.05
2017-08-31T09:13:10.230Z,86.38
2017-08-31T09:14:09.937Z,86.86
2017-08-31T09:15:10.508Z,86.8
2017-08-31T09:16:09.998Z,86.61
2017-08-31T09:17:09.938Z,86.85
2017-08-31T09:18:10.252Z,85.98
2017-08-31T09:19:09.948Z,82.69
2017-08-31T09:20:10.644Z,81.73
2017-08-31T09:21:09.958Z,81.19
2017-08-31T09:22:09.960Z,79.1
2017-08-31T09:23:10.283Z,77.75
2017-08-31T09:24:09.973Z,78.03
2017-08-31T09:25:11.047Z,78.23
2017-08-31T09:26:10.335Z,79.1
2017-08-31T09:27:10.301Z,79.06
2017-08-31T09:28:09.997Z,78.87
2017-08-31T09:29:09.992Z,80.18
2017-08-31T09:30:10.683Z,79.7
2017-08-31T09:31:10.098Z,77.63
2017-08-31T09:32:10.006Z,77.88
2017-08-31T09:33:10.010Z,80.87
2017-08-31T09:34:10.020Z,82.18
2017-08-31T09:35:11.124Z,84.46
2017-08-31T09:36:10.041Z,85.86
2017-08-31T09:37:10.337Z,87.02
2017-08-31T09:38:10.349Z,88.04
2017-08-31T09:39:10.343Z,89.53
2017-08-31T09:40:10.707Z,91.07
2017-08-31T09:41:10.396Z,92.13
2017-08-31T09:42:10.355Z,93.77
2017-08-31T09:43:10.060Z,94.97
2017-08-31T09:44:10.060Z,95.36
2017-08-31T09:45:11.231Z,95.65
2017-08-31T09:46:10.406Z,96.22
2017-08-31T09:47:10.061Z,96.8
2017-08-31T09:48:10.066Z,96.12
2017-08-31T09:49:10.378Z,96.7
2017-08-31T09:50:11.127Z,96.51
2017-08-31T09:51:10.461Z,97.86
2017-08-31T09:52:10.087Z,98.05
2017-08-31T09:53:10.392Z,98.54
2017-08-31T09:54:10.091Z,98.05
2017-08-31T09:55:10.722Z,99.01
2017-08-31T09:56:10.436Z,99.88
2017-08-31T09:57:10.092Z,99.06
2017-08-31T09:58:10.095Z,96.85
2017-08-31T09:59:10.410Z,96.08
2017-08-31T10:00:11.083Z,96.08
2017-08-31T10:01:10.109Z,95.6
2017-08-31T10:02:10.417Z,95.02
2017-08-31T10:03:10.425Z,94.92
2017-08-31T10:04:10.426Z,94.92
2017-08-31T10:05:11.447Z,95.12
2017-08-31T10:06:10.122Z,94.73
2017-08-31T10:07:10.438Z,95.79
2017-08-31T10:08:10.128Z,95.79
2017-08-31T10:09:10.441Z,94.25
2017-08-31T10:10:10.610Z,93.38
2017-08-31T10:11:10.508Z,94.82
2017-08-31T10:12:10.448Z,94.54
2017-08-31T10:13:10.453Z,93.38
2017-08-31T10:14:10.461Z,93.09
2017-08-31T10:15:10.778Z,92.61
2017-08-31T10:16:10.491Z,92.61
2017-08-31T10:17:10.463Z,91.75
2017-08-31T10:18:10.162Z,92.56
2017-08-31T10:19:10.163Z,96.32
2017-08-31T10:20:10.546Z,97.57
2017-08-31T10:21:15.435Z,97.67
2017-08-31T10:22:10.479Z,97.38
2017-08-31T10:23:10.488Z,93.24
2017-08-31T10:24:10.486Z,93.38
2017-08-31T10:25:11.149Z,94.06
2017-08-31T10:26:10.517Z,94.06
2017-08-31T10:27:10.187Z,91.31
2017-08-31T10:28:10.500Z,91.6
2017-08-31T10:29:10.501Z,94.1
2017-08-31T10:30:11.078Z,95.26
2017-08-31T10:31:10.562Z,94.73
2017-08-31T10:32:10.512Z,94.83
2017-08-31T10:33:10.225Z,93.96
2017-08-31T10:34:10.526Z,95.17
2017-08-31T10:35:11.434Z,95.17
2017-08-31T10:36:10.575Z,97.19
2017-08-31T10:37:10.535Z,97.96
2017-08-31T10:38:10.287Z,98.05
2017-08-31T10:39:10.606Z,96.9
2017-08-31T10:40:11.496Z,97.96
2017-08-31T10:41:10.533Z,98.14
2017-08-31T10:42:10.229Z,99.3
2017-08-31T10:43:10.548Z,99.4
2017-08-31T10:44:10.233Z,99.99
2017-08-31T10:45:11.546Z,99.88
2017-08-31T10:46:10.621Z,99.3
2017-08-31T10:47:10.240Z,99.78
2017-08-31T10:48:10.549Z,97.38
2017-08-31T10:49:10.554Z,97.38
2017-08-31T10:50:11.017Z,98.63
2017-08-31T10:51:10.268Z,99.21
2017-08-31T10:52:10.572Z,99.99
2017-08-31T10:53:10.564Z,99.99
2017-08-31T10:54:10.257Z,99.99
2017-08-31T10:55:11.593Z,99.99
2017-08-31T10:56:10.311Z,99.99
2017-08-31T10:57:10.265Z,99.99
2017-08-31T10:58:10.595Z,99.99
2017-08-31T10:59:10.578Z,99.99
2017-08-31T11:00:11.531Z,99.99
2017-08-31T11:01:10.664Z,99.99
2017-08-31T11:02:10.277Z,99.99
2017-08-31T11:03:10.591Z,99.99
2017-08-31T11:04:10.284Z,97.81
2017-08-31T11:05:10.955Z,97.91
2017-08-31T11:06:10.668Z,98.96
2017-08-31T11:07:10.296Z,99.26
2017-08-31T11:08:10.603Z,98.72
2017-08-31T11:09:10.609Z,94.3
2017-08-31T11:10:11.504Z,94.1
2017-08-31T11:11:10.661Z,92.85
2017-08-31T11:12:10.359Z,95.07
2017-08-31T11:13:10.630Z,93.82
2017-08-31T11:14:10.310Z,92.18
2017-08-31T11:15:11.414Z,91.55
2017-08-31T11:16:10.716Z,90.88
2017-08-31T11:17:10.711Z,88.47
2017-08-31T11:18:10.635Z,89.43
2017-08-31T11:19:10.638Z,89.19
2017-08-31T11:20:10.692Z,87.65
2017-08-31T11:21:10.682Z,85.63
2017-08-31T11:22:10.334Z,85.05
2017-08-31T11:23:10.646Z,84.76
2017-08-31T11:24:10.651Z,85.72
2017-08-31T11:25:11.394Z,85.63
2017-08-31T11:26:10.688Z,84.33
2017-08-31T11:27:10.774Z,84.43
2017-08-31T11:28:10.874Z,85.58
2017-08-31T11:29:10.745Z,86.35
2017-08-31T11:30:11.985Z,84.43
2017-08-31T11:31:10.940Z,85.93
2017-08-31T11:32:10.373Z,86.79
2017-08-31T11:33:10.972Z,85.93
2017-08-31T11:34:10.763Z,86.02
2017-08-31T11:35:11.834Z,87.08
2017-08-31T11:36:11.101Z,85.83
2017-08-31T11:37:10.833Z,84.97
2017-08-31T11:38:10.696Z,84.97
2017-08-31T11:39:10.769Z,85.06
2017-08-31T11:40:11.581Z,85.93
2017-08-31T11:41:10.435Z,85.1
2017-08-31T11:42:10.404Z,84.43
2017-08-31T11:43:10.404Z,84.81
2017-08-31T11:44:10.719Z,84.91
2017-08-31T11:45:10.414Z,85.97
2017-08-31T11:46:10.808Z,85.82
2017-08-31T11:47:10.726Z,84.38
2017-08-31T11:48:10.731Z,84.91
2017-08-31T11:49:10.422Z,82.5
2017-08-31T11:50:11.052Z,82.89
2017-08-31T11:51:10.794Z,83.47
2017-08-31T11:52:10.736Z,85.97
2017-08-31T11:53:10.749Z,87.9
2017-08-31T11:54:10.751Z,87.22
2017-08-31T11:55:11.303Z,84.91
2017-08-31T11:56:10.836Z,85.68
2017-08-31T11:57:10.761Z,86.07
2017-08-31T11:58:10.455Z,86.16
2017-08-31T11:59:10.772Z,85
2017-08-31T12:00:11.451Z,80.87
2017-08-31T12:01:10.465Z,81.93
2017-08-31T12:02:10.469Z,81.83
2017-08-31T12:03:10.470Z,81.25
2017-08-31T12:04:10.782Z,81.93
2017-08-31T12:05:11.670Z,82.37
2017-08-31T12:06:10.869Z,83.08
2017-08-31T12:07:10.793Z,82.6
2017-08-31T12:08:10.488Z,83.52
2017-08-31T12:09:10.491Z,80.58
2017-08-31T12:10:11.793Z,81.98
2017-08-31T12:11:10.601Z,81.02
2017-08-31T12:12:10.807Z,82.27
2017-08-31T12:13:10.524Z,80.92
2017-08-31T12:14:10.821Z,83.04
2017-08-31T12:15:11.706Z,82.85
2017-08-31T12:16:10.856Z,84.39
2017-08-31T12:17:10.527Z,84.39
2017-08-31T12:18:10.828Z,84.29
2017-08-31T12:19:10.531Z,84.39
2017-08-31T12:20:12.024Z,83.72
2017-08-31T12:21:10.904Z,85.25
2017-08-31T12:22:10.529Z,83.04
2017-08-31T12:23:10.844Z,82.85
2017-08-31T12:24:10.542Z,81.88
2017-08-31T12:25:11.332Z,80.35
2017-08-31T12:26:10.878Z,81.12
2017-08-31T12:27:10.545Z,80.68
2017-08-31T12:28:10.551Z,79.23
2017-08-31T12:29:10.864Z,78.08
2017-08-31T12:30:11.837Z,79.23
2017-08-31T12:31:10.603Z,79.71
2017-08-31T12:32:10.873Z,77.73
2017-08-31T12:33:10.569Z,77.73
2017-08-31T12:34:10.877Z,77.92
2017-08-31T12:35:11.311Z,77.63
2017-08-31T12:36:10.951Z,77.63
2017-08-31T12:37:10.893Z,76.67
2017-08-31T12:38:10.903Z,78.11
2017-08-31T12:39:10.595Z,78.5
2017-08-31T12:40:11.496Z,79.94
2017-08-31T12:41:10.976Z,79.5
2017-08-31T12:42:10.602Z,77.58
2017-08-31T12:43:10.913Z,77.48
2017-08-31T12:44:10.914Z,77.34
2017-08-31T12:45:11.815Z,78.88
2017-08-31T12:46:10.670Z,79.36
2017-08-31T12:47:10.927Z,79.61
2017-08-31T12:48:10.936Z,78.36
2017-08-31T12:49:10.932Z,78.56
2017-08-31T12:50:11.530Z,79.61
2017-08-31T12:51:10.969Z,80.96
2017-08-31T12:52:10.638Z,79.23
2017-08-31T12:53:10.950Z,78.85
2017-08-31T12:54:10.948Z,79.9